• Join FlightAware (Why Join?)
  • Login
  • US Flag 
11:43PM EDT


 

Airport Tracker/Info


-or-


 

Live Flight TrackerFlight Track Log ✈ N590ER ✈ 20-Apr-2013 ✈ KSBA - KPRC

Flight Track Log - Related Links

Times and Time Zones

All times are in EDT time to prevent confusion due to time zone crossing. See the N590ER flight status page for this flight to view local times or setup timezone preferences in your user account.

Time Position Orientation Groundspeed Altitude Reporting Facility
EDT Latitude Longitude Course Direction KTS MPH feet Rate Location/Type
05:58PM 34.4117 -119.8350 167° South 102 117 500  Level Los Angeles Center
05:59PM 34.3817 -119.8264 167° South 102 117 1,800 1,020 Climbing Los Angeles Center
06:00PM 34.3519 -119.8186 168° South 98 113 2,800 1,020 Climbing Los Angeles Center
06:01PM 34.3261 -119.8108 166° South 101 116 4,200 1,260 Climbing Los Angeles Center
06:02PM 34.2967 -119.7972 159° South 99 114 5,500 1,200 Climbing Los Angeles Center
06:03PM 34.2672 -119.7900 169° South 104 120 6,700 1,080 Climbing Los Angeles Center
06:04PM 34.2367 -119.7850 172° South 109 125 7,800 900 Climbing Los Angeles Center
06:05PM 34.2311 -119.7619 106° East 113 130 8,600 960 Climbing Los Angeles Center
06:06PM 34.2572 -119.7344 41° Northeast 106 122 9,900 1,140 Climbing Los Angeles Center
06:07PM 34.2744 -119.7075 52° Northeast 103 119 11,000 480 Climbing Los Angeles Center
06:08PM 34.2997 -119.6622 56° Northeast 127 146 11,000  Level Los Angeles Center
06:10PM 34.3278 -119.6164 53° Northeast 156 180 11,000  Level Los Angeles Center
06:11PM 34.3606 -119.5625 54° Northeast 163 188 11,000  Level Los Angeles Center
06:12PM 34.3878 -119.5181 53° Northeast 163 188 11,000  Level Los Angeles Center
06:13PM 34.4144 -119.4739 54° Northeast 164 189 11,000  Level Los Angeles Center
06:14PM 34.4414 -119.4294 54° Northeast 163 188 11,000  Level Los Angeles Center
06:15PM 34.4694 -119.3836 53° Northeast 169 194 11,000  Level Los Angeles Center
06:16PM 34.5025 -119.3317 52° Northeast 167 192 11,000  Level Los Angeles Center
06:17PM 34.5333 -119.2794 54° Northeast 159 183 11,000  Level Los Angeles Center
06:18PM 34.5517 -119.2311 65° Northeast 166 191 11,000  Level Los Angeles Center
06:19PM 34.5556 -119.1633 86° East 168 193 11,000  Level Los Angeles Center
06:20PM 34.5600 -119.1058 85° East 172 198 11,000  Level Los Angeles Center
06:21PM 34.5642 -119.0506 85° East 164 189 11,000  Level Los Angeles Center
06:22PM 34.5678 -118.9947 85° East 165 190 11,000  Level Los Angeles Center
06:23PM 34.5719 -118.9275 86° East 166 191 11,000  Level Los Angeles Center
06:24PM 34.5767 -118.8725 84° East 167 192 11,000  Level Los Angeles Center
06:26PM 34.5800 -118.8175 86° East 160 184 11,000  Level Los Angeles Center
06:27PM 34.5839 -118.7608 85° East 166 191 11,000  Level Los Angeles Center
06:28PM 34.5875 -118.7150 85° East 169 194 11,000  Level Los Angeles Center
06:29PM 34.5922 -118.6489 85° East 163 188 11,000 -60 Level Los Angeles Center
06:30PM 34.5969 -118.5811 85° East 165 190 10,900 -60 Descending Los Angeles Center
06:31PM 34.6008 -118.5244 85° East 167 192 10,900  Level Los Angeles Center
06:32PM 34.6047 -118.4675 85° East 168 193 11,000  Climbing Los Angeles Center
06:33PM 34.6089 -118.4106 85° East 170 196 11,000  Level Los Angeles Center
06:34PM 34.6122 -118.3539 86° East 171 197 11,000  Level Los Angeles Center
06:35PM 34.6158 -118.2978 86° East 169 194 11,000  Level Los Angeles Center
06:36PM 34.6197 -118.2408 85° East 169 194 11,000  Level Los Angeles Center
06:37PM 34.6242 -118.1742 85° East 166 191 11,000  Level Los Angeles Center
06:38PM 34.6275 -118.1244 85° East 165 190 11,000  Level Los Angeles Center
06:39PM 34.6311 -118.0678 86° East 166 191 11,000  Level Los Angeles Center
06:40PM 34.6375 -118.0125 82° East 164 189 11,000  Level Los Angeles Center
06:41PM 34.6439 -117.9475 83° East 166 191 11,000  Level Los Angeles Center
06:42PM 34.6506 -117.8925 82° East 166 191 11,000  Level Los Angeles Center
06:43PM 34.6564 -117.8375 83° East 165 190 11,000  Level Los Angeles Center
06:44PM 34.6617 -117.7817 83° East 167 192 11,000  Level Los Angeles Center
06:45PM 34.6678 -117.7264 82° East 166 191 11,000  Level Los Angeles Center
06:46PM 34.6733 -117.6722 83° East 165 190 11,000  Level Los Angeles Center
06:47PM 34.6806 -117.6056 82° East 166 191 11,000  Level Los Angeles Center
06:48PM 34.6861 -117.5500 83° East 166 191 11,000  Level Los Angeles Center
06:49PM 34.6922 -117.4944 82° East 167 192 11,000  Level Los Angeles Center
06:50PM 34.6983 -117.4375 83° East 170 196 11,000  Level Los Angeles Center
06:51PM 34.7047 -117.3819 82° East 168 193 11,000  Level Los Angeles Center
06:52PM 34.7103 -117.3250 83° East 169 194 11,000  Level Los Angeles Center
06:53PM 34.7167 -117.2572 83° East 169 194 11,000  Level Los Angeles Center
06:54PM 34.7219 -117.2017 83° East 168 193 11,000 -60 Level Los Angeles Center
06:55PM 34.7269 -117.1447 84° East 168 193 10,900 -60 Descending Los Angeles Center
06:56PM 34.7336 -117.0886 82° East 169 194 10,900  Level Los Angeles Center
06:57PM 34.7389 -117.0317 84° East 169 194 10,900  Level Los Angeles Center
06:58PM 34.7453 -116.9750 82° East 170 196 10,900  Level Los Angeles Center
07:00PM 34.7514 -116.9089 84° East 168 193 10,900  Level Los Angeles Center
07:01PM 34.7567 -116.8525 83° East 167 192 10,900  Level Los Angeles Center
07:02PM 34.7622 -116.7972 83° East 167 192 10,900  Level Los Angeles Center
07:03PM 34.7689 -116.7406 82° East 167 192 10,900  Level Los Angeles Center
07:04PM 34.7756 -116.6850 82° East 167 192 10,900  Level Los Angeles Center
07:05PM 34.7800 -116.6294 84° East 167 192 10,900  Level Los Angeles Center
07:06PM 34.7861 -116.5628 84° East 166 191 10,900  Level Los Angeles Center
07:07PM 34.7911 -116.5067 84° East 167 192 10,900  Level Los Angeles Center
07:08PM 34.7964 -116.4514 83° East 166 191 10,900  Level Los Angeles Center
07:09PM 34.7958 -116.3939 91° East 168 193 10,900  Level Los Angeles Center
07:10PM 34.7950 -116.3375 91° East 169 194 10,900  Level Los Angeles Center
07:11PM 34.7947 -116.2808 90° East 168 193 10,900  Level Los Angeles Center
07:12PM 34.7947 -116.2250 90° East 167 192 10,900  Level Los Angeles Center
07:13PM 34.7922 -116.1581 93° East 166 191 10,900  Level Los Angeles Center
07:14PM 34.7922 -116.1014 90° East 166 191 10,900  Level Los Angeles Center
07:15PM 34.7917 -116.0439 91° East 168 193 10,900  Level Los Angeles Center
07:16PM 34.7908 -115.9864 91° East 170 196 11,000  Climbing Los Angeles Center
07:17PM 34.7906 -115.9283 90° East 170 196 11,000  Level Los Angeles Center
07:18PM 34.7906 -115.8703 90° East 172 198 11,000  Level Los Angeles Center
07:19PM 34.7894 -115.8008 91° East 172 198 11,000  Level Los Angeles Center
07:20PM 34.7886 -115.7425 91° East 172 198 11,000  Level Los Angeles Center
07:21PM 34.7886 -115.6831 90° East 175 201 11,000  Level Los Angeles Center
07:22PM 34.7864 -115.6261 93° East 172 198 11,000  Level Los Angeles Center
07:23PM 34.7858 -115.5669 91° East 174 200 11,000  Level Los Angeles Center
07:24PM 34.7858 -115.5031 90° East 173 199 11,000  Level Los Angeles Center
07:25PM 34.7847 -115.4439 91° East 175 201 11,000  Level Los Angeles Center
07:26PM 34.7836 -115.3847 91° East 175 201 11,000  Level Los Angeles Center
07:27PM 34.7825 -115.3133 91° East 175 201 11,000  Level Los Angeles Center
07:28PM 34.7814 -115.2536 91° East 176 203 11,000  Level Los Angeles Center
07:29PM 34.7803 -115.1911 91° East 181 208 11,100  Climbing Los Angeles Center
07:30PM 34.7789 -115.1347 92° East 175 201 11,100  Level Los Angeles Center
07:31PM 34.7781 -115.0781 91° East 169 194 11,100  Level Los Angeles Center
07:33PM 34.7781 -115.0197 90° East 171 197 11,100  Level Los Angeles Center
07:34PM 34.7764 -114.9597 92° East 174 200 11,100  Level Los Angeles Center
07:35PM 34.7750 -114.8856 91° East 181 208 11,100  Level Los Angeles Center
07:36PM 34.7739 -114.8256 91° East 179 206 11,100  Level Los Angeles Center
07:37PM 34.7717 -114.7639 92° East 182 209 11,100  Level Los Angeles Center
07:38PM 34.7714 -114.7014 90° East 184 212 11,100  Level Los Angeles Center
07:39PM 34.7694 -114.6403 92° East 183 211 11,100  Level Los Angeles Center
07:40PM 34.7681 -114.5769 92° East 185 213 11,100  Level Los Angeles Center
07:41PM 34.7669 -114.5172 91° East 179 206 11,100  Level Los Angeles Center
07:42PM 34.7647 -114.4475 92° East 173 199 11,100  Level Los Angeles Center
07:43PM 34.7636 -114.3881 91° East 175 201 11,100  Level Los Angeles Center
07:44PM 34.7625 -114.3269 91° East 179 206 11,100  Level Los Angeles Center
07:45PM 34.7606 -114.2656 92° East 182 209 11,100  Level Los Angeles Center
07:46PM 34.7589 -114.2039 92° East 182 209 11,100  Level Los Angeles Center
07:47PM 34.7581 -114.1403 91° East 186 214 11,100  Level Los Angeles Center
07:48PM 34.7558 -114.0681 92° East 181 208 11,200  Climbing Los Angeles Center
07:49PM 34.7533 -114.0067 93° East 181 208 11,200  Level Los Angeles Center
07:50PM 34.7519 -113.9456 92° East 182 209 11,200  Level Los Angeles Center
07:51PM 34.7514 -113.8922 91° East 178 205 11,200 -120 Level Los Angeles Center
07:51PM 34.7503 -113.8681 93° East 179 206 11,100 -120 Descending Albuquerque Center
07:52PM 34.7486 -113.8072 92° East 180 207 11,100  Level Albuquerque Center
07:53PM 34.7464 -113.7358 92° East 178 205 11,100  Level Albuquerque Center
07:54PM 34.7453 -113.6775 91° East 177 204 11,100  Level Albuquerque Center
07:56PM 34.7433 -113.6169 92° East 178 205 11,100  Level Albuquerque Center
07:57PM 34.7422 -113.5564 91° East 181 208 11,100  Level Albuquerque Center
07:58PM 34.7386 -113.4958 94° East 181 208 11,100  Level Albuquerque Center
07:59PM 34.7378 -113.4364 91° East 179 206 11,100  Level Albuquerque Center
08:00PM 34.7347 -113.3772 94° East 177 204 11,200  Climbing Albuquerque Center
08:01PM 34.7342 -113.3167 91° East 180 207 11,100  Descending Albuquerque Center
08:02PM 34.7317 -113.2456 92° East 178 205 11,200 -60 Climbing Albuquerque Center
08:03PM 34.7286 -113.1833 93° East 181 208 11,000 -120 Descending Albuquerque Center
08:04PM 34.7261 -113.1236 93° East 181 208 11,000  Level Albuquerque Center
08:05PM 34.7247 -113.0614 92° East 184 212 11,000  Level Albuquerque Center
08:06PM 34.7222 -113.0017 93° East 180 207 11,000  Level Albuquerque Center
08:07PM 34.7175 -112.9425 96° East 179 206 11,000  Level Albuquerque Center
08:08PM 34.7094 -112.8728 98° East 177 204 11,000 -240 Level Albuquerque Center
08:09PM 34.7022 -112.8147 99° East 176 203 10,600 -420 Descending Albuquerque Center
08:10PM 34.6953 -112.7583 99° East 171 197 10,200 -420 Descending Albuquerque Center